Terminal Aerodrome Forecast
Issued by NWS Cleveland, OH

Home | Current Version | Previous Version | Graphics & Text | Print | Product List | Glossary On
Versions: 1 2 3 4 5 6 7 8 9 10 11 12 13 14 15 16 17
000
FTUS41 KCLE 211126
TAFCAK
TAF
KCAK 211126Z 2112/2212 00000KT P6SM BKN045
     FM211800 32006KT P6SM SCT050 BKN080
     FM212000 31006KT P6SM FEW060 SCT200
     FM220200 00000KT P6SM FEW200
     FM220900 14004KT P6SM BKN100=

USA.gov is the U.S. government's official web portal to all federal, state and local government web resources and services.